x

Fowey Rock, Fl (fwyf1) Weather Station

3:00pm - Wed 20th Sep 2017 All times are EDT. -4 hours from GMT.

  • Wind
    8mph, 9mph gusts
  • Sea Temp 86°f
  • Air Temp 83°f
  • Sea Pressure 1014.7mb
  • Fowey Rock, Fl
  • Fowey Rock, Fl

More Historic Weather Station data

Upgrade to MSW Pro to gain access to the past 30 days of data for over 8000 Wavebouys and Weather Stations around the globe.

Join

Comparision Forecast

View Surf forecast
   
Wed 09/20 3:00pm 8 9 mph 1014.7mb 86f 83f
2:00pm 6 7 mph 1015.5mb 85f 83f
1:00pm 5 7 mph 1016.1mb 85f 83f
12:00pm 7 8 mph 1016.4mb 85f 83f
11:00am 3 6 mph 1016.5mb 85f 85f
10:00am 3 5 mph 1016.7mb 85f 84f
9:00am 5 6 mph 1016.2mb 85f 83f
8:00am 3 5 mph 1015.6mb 85f 83f
7:00am 3 5 mph 1015.2mb 85f 82f
6:00am 3 3 mph 1014.9mb 84f 82f
5:00am  -  0 mph 1014.5mb 85f 82f
4:00am  -  1 mph 1014.4mb 84f 82f
3:00am 5 5 mph 1014.4mb 84f 83f
2:00am 6 7 mph 1014.7mb 85f 83f
1:00am 6 7 mph 1014.9mb 85f 83f
12:00am 7 7 mph 1015.2mb 85f 83f
Tue 09/19 11:00pm 7 8 mph 1015.1mb 84f 83f
10:00pm 11 13 mph 1014.6mb 84f 84f
9:00pm 13 14 mph 1014.4mb 84f 84f
8:00pm 14 15 mph 1013.7mb 84f 84f
7:00pm 14 15 mph 1013.5mb 85f 84f
6:00pm 15 17 mph 1013.1mb 85f 85f
5:00pm 17 17 mph 1012.8mb 85f 85f
4:00pm 16 17 mph 1013mb 85f 84f
3:00pm 8 9 mph 1013.3mb 85f 85f
2:00pm  -  1 mph 1013.5mb 85f 86f
1:00pm 2 2 mph 1014.1mb 84f 84f
12:00pm 3 5 mph 1014.7mb 84f 85f
11:00am 6 6 mph 1014.7mb 84f 83f
10:00am 8 9 mph 1014.5mb 84f 83f
9:00am 7 7 mph 1013.9mb 84f 83f
8:00am 3 5 mph 1013.5mb 84f 82f
7:00am 6 6 mph 1013.4mb 84f 81f
6:00am 6 7 mph 1013.3mb 84f 81f
5:00am 8 9 mph 1012.8mb 84f 81f
4:00am 9 11 mph 1012.2mb 84f 81f
3:00am 10 11 mph 1012.6mb 84f 82f
2:00am 9 10 mph 1012.8mb 84f 82f
1:00am 5 5 mph 1013.3mb 84f 84f
12:00am 2 2 mph 1013.6mb 84f 84f
Mon 09/18 11:00pm 6 7 mph 1013.6mb 84f 84f
10:00pm 11 13 mph 1013.5mb 84f 85f
9:00pm 7 7 mph 1013mb 84f 86f
8:00pm 9 9 mph 1012.6mb 84f 86f
7:00pm 8 9 mph 1012.1mb 84f 85f
6:00pm 9 10 mph 1012mb 84f 85f
5:00pm 11 13 mph 1012.1mb 84f 85f
4:00pm 8 9 mph 1012.6mb 85f 84f
3:00pm 7 8 mph 1013.1mb 85f 83f
2:00pm 6 6 mph 1013.7mb 85f 84f
1:00pm 3 3 mph 1014.5mb 84f 83f
12:00pm 2 2 mph 1015mb 84f 84f
11:00am 5 5 mph 1015.3mb 84f 81f
10:00am 5 5 mph 1014.8mb 84f 80f
9:00am 13 14 mph 1014.6mb 84f 79f
8:00am 14 14 mph 1014.2mb 84f 79f
7:00am 13 14 mph 1013.6mb 83f 79f
6:00am 10 13 mph 1013.1mb 84f 79f
5:00am 11 13 mph 1013mb 84f 80f
4:00am 14 15 mph 1013.2mb 83f 80f
3:00am 11 13 mph 1013.8mb 84f 80f
2:00am 11 13 mph 1014.3mb 84f 81f
1:00am 15 17 mph 1014.8mb 84f 82f
12:00am 15 16 mph 1015.1mb 84f 82f
Sun 09/17 11:00pm 21 23 mph 1015.1mb 83f 83f
10:00pm 20 21 mph 1015mb 83f 83f
9:00pm 20 21 mph 1014.6mb 83f 84f
8:00pm 14 14 mph 1014.1mb 84f 84f
7:00pm 9 10 mph 1013.7mb 84f 84f
6:00pm 10 10 mph 1013.7mb 84f 84f
5:00pm 6 7 mph 1013.6mb 84f 84f
4:00pm 5 6 mph 1013.4mb 84f 84f
3:00pm 6 7 mph 1013.8mb 84f 84f
2:00pm 9 10 mph 1014.4mb 84f 83f
1:00pm 5 5 mph 1015.3mb 84f 83f
12:00pm 6 7 mph 1015.9mb 84f 83f
11:00am 9 9 mph 1016.3mb 84f 82f
10:00am 14 15 mph 1015.9mb 84f 82f
9:00am 14 15 mph 1015.7mb 84f 81f
8:00am 14 15 mph 1015.3mb 84f 81f
7:00am 11 11 mph 1014.7mb 84f 81f
6:00am 15 16 mph 1014mb 84f 81f
5:00am 10 10 mph 1013.6mb 84f 81f
4:00am 9 10 mph 1013.4mb 84f 83f
3:00am 13 14 mph 1013.9mb 83f 83f
2:00am 14 15 mph 1014.6mb 83f 83f
1:00am 18 20 mph 1015mb 83f 83f
12:00am 16 18 mph 1015.2mb 84f 83f
Sat 09/16 11:00pm 21 22 mph 1015.3mb 84f 84f
10:00pm 24 25 mph 1015.3mb 84f 84f
9:00pm 18 20 mph 1014.9mb 84f 84f